Time;durP1;ratioP1;P1;durP2;ratioP2;P2;SDS_P1;SDS_P2;PMS_P1;PMS_P2;Temp;Humidity;BMP_temperature;BMP_pressure;BME280_temperature;BME280_humidity;BME280_pressure;Samples;Min_cycle;Max_cycle;Signal;HPM_P1;HPM_P2
2022/10/17 00:00:40;;;;;;;14.00;10.27;;;;;;;;;;5050366;28;20421;-73
2022/10/17 00:03:06;;;;;;;11.43;10.23;;;;;;;;;;5073443;28;20016;-73
2022/10/17 00:05:31;;;;;;;16.88;11.48;;;;;;;;;;5073462;28;20463;-72
2022/10/17 00:07:56;;;;;;;13.27;10.38;;;;;;;;;;5073950;28;20053;-72
2022/10/17 00:10:22;;;;;;;13.20;9.93;;;;;;;;;;5073346;28;20027;-72
2022/10/17 00:12:49;;;;;;;18.73;11.07;;;;;;;;;;5089060;28;20016;-72
2022/10/17 00:15:16;;;;;;;12.43;11.13;;;;;;;;;;5072926;28;20025;-72
2022/10/17 00:17:41;;;;;;;12.55;11.05;;;;;;;;;;5070915;28;20025;-72
2022/10/17 00:20:06;;;;;;;13.77;11.70;;;;;;;;;;5042894;28;20051;-73
2022/10/17 00:22:31;;;;;;;14.30;12.32;;;;;;;;;;5071841;28;20259;-73
2022/10/17 00:24:57;;;;;;;16.97;12.70;;;;;;;;;;5055660;28;20008;-72
2022/10/17 00:27:22;;;;;;;15.93;13.60;;;;;;;;;;5073947;28;20366;-72
2022/10/17 00:29:49;;;;;;;22.70;13.53;;;;;;;;;;5073114;28;20020;-72
2022/10/17 00:32:14;;;;;;;20.60;15.93;;;;;;;;;;5073522;28;20283;-73
2022/10/17 00:34:39;;;;;;;17.27;14.60;;;;;;;;;;5054915;28;20101;-73
2022/10/17 00:37:04;;;;;;;18.13;14.80;;;;;;;;;;5072730;28;20028;-73
2022/10/17 00:39:29;;;;;;;23.15;17.40;;;;;;;;;;5072652;28;20013;-73
2022/10/17 00:41:55;;;;;;;17.83;16.00;;;;;;;;;;5073333;28;20016;-73
2022/10/17 00:44:29;;;;;;;27.02;18.60;;;;;;;;;;5072463;28;20745;-72
2022/10/17 00:46:55;;;;;;;19.83;17.48;;;;;;;;;;5073123;28;20471;-73
2022/10/17 00:49:22;;;;;;;24.77;18.98;;;;;;;;;;5072386;28;20095;-74
2022/10/17 00:51:57;;;;;;;23.42;18.38;;;;;;;;;;5072997;28;20032;-73
2022/10/17 00:54:25;;;;;;;21.17;18.48;;;;;;;;;;5072072;28;20020;-73
2022/10/17 00:56:50;;;;;;;22.83;18.85;;;;;;;;;;5073126;28;20020;-74
2022/10/17 00:59:18;;;;;;;20.65;17.15;;;;;;;;;;5054838;28;20035;-74
2022/10/17 01:01:47;;;;;;;24.50;17.40;;;;;;;;;;5084875;28;20012;-74
2022/10/17 01:04:12;;;;;;;22.13;17.27;;;;;;;;;;5072754;28;20024;-75
2022/10/17 01:06:37;;;;;;;20.58;15.93;;;;;;;;;;5072678;28;20497;-75
2022/10/17 01:09:03;;;;;;;19.83;15.43;;;;;;;;;;5072779;28;20013;-75
2022/10/17 01:11:31;;;;;;;23.60;16.40;;;;;;;;;;5072367;28;20321;-73
2022/10/17 01:14:10;;;;;;;27.15;17.75;;;;;;;;;;5055999;28;20017;-74
2022/10/17 01:16:51;;;;;;;23.55;17.98;;;;;;;;;;5054267;28;20020;-75
2022/10/17 01:19:16;;;;;;;22.75;16.83;;;;;;;;;;5072684;28;20532;-74
2022/10/17 01:21:49;;;;;;;22.30;16.03;;;;;;;;;;5072515;28;20025;-74
2022/10/17 01:24:17;;;;;;;37.03;19.63;;;;;;;;;;5069049;28;20119;-74
2022/10/17 01:26:42;;;;;;;23.55;16.65;;;;;;;;;;5072336;28;20059;-74
2022/10/17 01:29:07;;;;;;;21.67;16.63;;;;;;;;;;5052429;28;20091;-74
2022/10/17 01:31:38;;;;;;;32.43;16.47;;;;;;;;;;5071788;28;20031;-73
2022/10/17 01:34:11;;;;;;;34.85;18.48;;;;;;;;;;5072656;28;20032;-73
2022/10/17 01:36:39;;;;;;;20.70;15.85;;;;;;;;;;5072150;28;20060;-73
2022/10/17 01:39:05;;;;;;;24.48;17.05;;;;;;;;;;5073303;28;20070;-73
2022/10/17 01:41:36;;;;;;;24.90;17.07;;;;;;;;;;5063831;28;20417;-73
2022/10/17 01:44:10;;;;;;;20.85;16.40;;;;;;;;;;5067199;28;20274;-73
2022/10/17 01:46:36;;;;;;;23.13;15.57;;;;;;;;;;5072965;28;20092;-73
2022/10/17 01:49:03;;;;;;;20.70;15.55;;;;;;;;;;5086196;28;20072;-74
2022/10/17 01:51:37;;;;;;;16.85;14.95;;;;;;;;;;5072662;28;20009;-73
2022/10/17 01:54:15;;;;;;;22.80;14.05;;;;;;;;;;5044166;28;20040;-73
2022/10/17 01:56:41;;;;;;;18.48;15.02;;;;;;;;;;5079976;28;20077;-74
2022/10/17 01:59:15;;;;;;;19.73;14.10;;;;;;;;;;5087584;28;20087;-73
2022/10/17 02:01:41;;;;;;;19.98;14.20;;;;;;;;;;5075894;28;20013;-73
2022/10/17 02:04:07;;;;;;;24.98;15.32;;;;;;;;;;5058222;28;20497;-73
2022/10/17 02:06:33;;;;;;;18.25;14.85;;;;;;;;;;5075741;28;20016;-73
2022/10/17 02:08:58;;;;;;;17.90;14.35;;;;;;;;;;5058020;28;20036;-73
2022/10/17 02:11:24;;;;;;;17.50;14.60;;;;;;;;;;5076054;28;20059;-72
2022/10/17 02:14:08;;;;;;;23.33;14.18;;;;;;;;;;5074179;28;20333;-73
2022/10/17 02:16:59;;;;;;;18.08;13.13;;;;;;;;;;5075043;28;20533;-73
2022/10/17 02:19:25;;;;;;;15.93;12.88;;;;;;;;;;5071174;28;20044;-73
2022/10/17 02:21:56;;;;;;;21.80;13.50;;;;;;;;;;5073624;28;20032;-72
2022/10/17 02:24:40;;;;;;;17.27;12.88;;;;;;;;;;5063509;28;20025;-73
2022/10/17 02:27:08;;;;;;;18.13;12.67;;;;;;;;;;5075731;28;20031;-73
2022/10/17 02:29:37;;;;;;;23.48;13.10;;;;;;;;;;5075823;28;20270;-73
2022/10/17 02:32:07;;;;;;;14.73;12.05;;;;;;;;;;5076553;28;20047;-73
2022/10/17 02:34:37;;;;;;;19.67;12.68;;;;;;;;;;5075170;28;20427;-72
2022/10/17 02:37:04;;;;;;;14.13;12.55;;;;;;;;;;5075068;28;20552;-73
2022/10/17 02:39:30;;;;;;;19.15;12.48;;;;;;;;;;5075276;28;20090;-72
2022/10/17 02:41:57;;;;;;;18.15;11.75;;;;;;;;;;5074698;28;20044;-73
2022/10/17 02:44:23;;;;;;;13.50;12.02;;;;;;;;;;5054676;28;20093;-72
2022/10/17 02:46:54;;;;;;;16.60;12.13;;;;;;;;;;5048213;28;20009;-73
2022/10/17 02:49:22;;;;;;;13.40;11.90;;;;;;;;;;5085426;28;20100;-72
2022/10/17 02:51:53;;;;;;;16.20;12.38;;;;;;;;;;5074759;28;20021;-72
2022/10/17 02:54:20;;;;;;;12.38;11.07;;;;;;;;;;5074539;28;20160;-72
2022/10/17 02:56:58;;;;;;;14.52;10.75;;;;;;;;;;5075554;28;20077;-73
2022/10/17 02:59:24;;;;;;;16.92;11.23;;;;;;;;;;5074828;28;20448;-73
2022/10/17 03:01:50;;;;;;;12.30;11.02;;;;;;;;;;5075076;28;20091;-73
2022/10/17 03:04:17;;;;;;;22.48;10.75;;;;;;;;;;5074709;28;20009;-72
2022/10/17 03:06:43;;;;;;;17.50;11.30;;;;;;;;;;5074100;28;20363;-73
2022/10/17 03:09:08;;;;;;;12.88;10.98;;;;;;;;;;5075083;28;20048;-72
2022/10/17 03:11:34;;;;;;;14.25;10.65;;;;;;;;;;5073877;28;20051;-72
2022/10/17 03:13:59;;;;;;;12.63;9.93;;;;;;;;;;5054993;28;20463;-73
2022/10/17 03:16:24;;;;;;;30.30;12.80;;;;;;;;;;5070541;28;20659;-73
2022/10/17 03:18:49;;;;;;;13.07;10.95;;;;;;;;;;5048372;28;20673;-73
2022/10/17 03:21:14;;;;;;;12.27;10.77;;;;;;;;;;5074574;28;20111;-72
2022/10/17 03:23:40;;;;;;;13.30;10.50;;;;;;;;;;5074181;28;20012;-73
2022/10/17 03:26:05;;;;;;;12.53;10.77;;;;;;;;;;5074485;28;20660;-73
2022/10/17 03:28:31;;;;;;;12.40;9.15;;;;;;;;;;5075229;28;20602;-73
2022/10/17 03:30:56;;;;;;;12.90;10.00;;;;;;;;;;5077155;28;20156;-73
2022/10/17 03:33:21;;;;;;;15.37;10.00;;;;;;;;;;5074083;28;20331;-72
2022/10/17 03:35:46;;;;;;;14.03;11.80;;;;;;;;;;5075506;28;20335;-72
2022/10/17 03:38:11;;;;;;;15.00;10.25;;;;;;;;;;5067863;28;20027;-72
2022/10/17 03:40:37;;;;;;;11.80;10.57;;;;;;;;;;5066104;28;20020;-73
2022/10/17 03:43:02;;;;;;;11.50;10.33;;;;;;;;;;5066920;28;20291;-72
2022/10/17 03:45:27;;;;;;;14.13;10.60;;;;;;;;;;5051831;28;20757;-73
2022/10/17 03:47:52;;;;;;;14.15;9.73;;;;;;;;;;5062240;28;20286;-73
2022/10/17 03:50:18;;;;;;;10.77;8.98;;;;;;;;;;5065906;28;20020;-73
2022/10/17 03:52:47;;;;;;;20.90;11.47;;;;;;;;;;5073940;28;20021;-73
2022/10/17 03:55:12;;;;;;;13.68;11.13;;;;;;;;;;5046836;28;20644;-73
2022/10/17 03:57:37;;;;;;;14.70;12.38;;;;;;;;;;5087009;28;20016;-73
2022/10/17 04:00:04;;;;;;;27.33;13.47;;;;;;;;;;5073324;28;20016;-73
2022/10/17 04:02:29;;;;;;;14.13;11.57;;;;;;;;;;5073991;28;20025;-73
2022/10/17 04:04:54;;;;;;;17.85;11.15;;;;;;;;;;5078316;28;20027;-73
2022/10/17 04:07:19;;;;;;;17.23;12.20;;;;;;;;;;5092978;28;20021;-73
2022/10/17 04:09:44;;;;;;;14.17;10.33;;;;;;;;;;5071676;28;20302;-73
2022/10/17 04:12:10;;;;;;;17.23;10.97;;;;;;;;;;5073556;28;20267;-72
2022/10/17 04:14:35;;;;;;;21.77;12.73;;;;;;;;;;5073609;28;20332;-72
2022/10/17 04:17:00;;;;;;;24.92;11.27;;;;;;;;;;5063470;28;20048;-72
2022/10/17 04:19:26;;;;;;;25.07;12.10;;;;;;;;;;5054493;28;20507;-72
2022/10/17 04:21:51;;;;;;;14.05;10.93;;;;;;;;;;5055096;28;20020;-72
2022/10/17 04:24:16;;;;;;;13.38;10.98;;;;;;;;;;5073565;28;20020;-72
2022/10/17 04:26:41;;;;;;;11.63;9.82;;;;;;;;;;5073388;28;20065;-72
2022/10/17 04:29:07;;;;;;;13.50;11.40;;;;;;;;;;5073238;28;20028;-72
2022/10/17 04:31:32;;;;;;;15.18;10.48;;;;;;;;;;5072785;28;20761;-72
2022/10/17 04:33:57;;;;;;;16.07;10.40;;;;;;;;;;5076953;28;20016;-72
2022/10/17 04:36:23;;;;;;;13.73;10.95;;;;;;;;;;5071733;28;20392;-72
2022/10/17 04:38:48;;;;;;;15.15;10.10;;;;;;;;;;5073116;28;20143;-72
2022/10/17 04:41:14;;;;;;;12.98;9.77;;;;;;;;;;5073212;28;20021;-72
2022/10/17 04:43:40;;;;;;;13.55;9.48;;;;;;;;;;5072456;28;20012;-72
2022/10/17 04:46:07;;;;;;;17.55;10.75;;;;;;;;;;5072953;28;20091;-72
2022/10/17 04:48:32;;;;;;;12.68;10.77;;;;;;;;;;5055274;28;20031;-73
2022/10/17 04:51:01;;;;;;;12.68;10.30;;;;;;;;;;5068414;28;20016;-72
2022/10/17 04:53:27;;;;;;;11.52;8.68;;;;;;;;;;5071688;28;20020;-72
2022/10/17 04:55:52;;;;;;;16.48;10.90;;;;;;;;;;5061031;28;20021;-72
2022/10/17 04:58:17;;;;;;;12.88;10.50;;;;;;;;;;5068828;28;20030;-72
2022/10/17 05:00:43;;;;;;;11.48;9.45;;;;;;;;;;5071648;28;20016;-72
2022/10/17 05:03:08;;;;;;;17.77;9.90;;;;;;;;;;5072639;28;20032;-72
2022/10/17 05:05:35;;;;;;;11.47;9.23;;;;;;;;;;5068447;28;20334;-72
2022/10/17 05:08:01;;;;;;;20.90;10.23;;;;;;;;;;5072947;28;20298;-72
2022/10/17 05:10:26;;;;;;;11.50;10.30;;;;;;;;;;5072371;28;20742;-72
2022/10/17 05:12:51;;;;;;;13.00;10.43;;;;;;;;;;5074156;28;20013;-72
2022/10/17 05:15:16;;;;;;;13.40;10.52;;;;;;;;;;5072944;28;20332;-72
2022/10/17 05:17:42;;;;;;;11.87;9.23;;;;;;;;;;5072586;28;20048;-72
2022/10/17 05:20:07;;;;;;;14.57;10.57;;;;;;;;;;5068367;28;20317;-72
2022/10/17 05:22:33;;;;;;;12.65;10.80;;;;;;;;;;5071637;28;20269;-72
2022/10/17 05:24:58;;;;;;;14.48;9.73;;;;;;;;;;5072526;28;20463;-72
2022/10/17 05:27:23;;;;;;;13.55;11.27;;;;;;;;;;5058432;28;20021;-72
2022/10/17 05:29:48;;;;;;;13.00;10.43;;;;;;;;;;5072148;28;20020;-72
2022/10/17 05:32:14;;;;;;;12.50;10.73;;;;;;;;;;5072465;28;20437;-72
2022/10/17 05:34:39;;;;;;;14.15;9.70;;;;;;;;;;5072344;28;20310;-72
2022/10/17 05:37:05;;;;;;;11.47;10.13;;;;;;;;;;5072125;28;20040;-72
2022/10/17 05:39:30;;;;;;;10.40;9.33;;;;;;;;;;5068864;28;20311;-71
2022/10/17 05:41:55;;;;;;;12.37;9.97;;;;;;;;;;5072591;28;20008;-69
2022/10/17 05:44:20;;;;;;;11.23;10.02;;;;;;;;;;5079093;28;20312;-70
2022/10/17 05:46:47;;;;;;;11.73;9.83;;;;;;;;;;5071862;28;20020;-70
2022/10/17 05:49:12;;;;;;;11.48;9.27;;;;;;;;;;5071971;28;20016;-72
2022/10/17 05:51:38;;;;;;;12.60;8.33;;;;;;;;;;5052546;28;20019;-72
2022/10/17 05:54:06;;;;;;;9.93;8.83;;;;;;;;;;5054110;28;20281;-72
2022/10/17 05:56:32;;;;;;;11.73;9.35;;;;;;;;;;5070832;28;20848;-72
2022/10/17 05:58:57;;;;;;;9.93;8.75;;;;;;;;;;5071724;28;20111;-72
2022/10/17 06:01:23;;;;;;;10.43;8.53;;;;;;;;;;5072483;28;20020;-72
2022/10/17 06:03:48;;;;;;;10.18;7.78;;;;;;;;;;5074836;28;20370;-72
2022/10/17 06:06:14;;;;;;;11.05;8.43;;;;;;;;;;5072011;28;20013;-72
2022/10/17 06:08:39;;;;;;;12.75;8.50;;;;;;;;;;5071677;28;20012;-71
2022/10/17 06:11:05;;;;;;;10.38;8.10;;;;;;;;;;5072249;28;20390;-72
2022/10/17 06:13:30;;;;;;;10.25;7.68;;;;;;;;;;5070174;28;20016;-70
2022/10/17 06:15:55;;;;;;;10.63;7.30;;;;;;;;;;5071559;28;20094;-72
2022/10/17 06:18:21;;;;;;;11.02;7.85;;;;;;;;;;5071438;28;20271;-72
2022/10/17 06:20:46;;;;;;;11.20;9.00;;;;;;;;;;5071667;28;20081;-72
2022/10/17 06:23:11;;;;;;;10.40;8.38;;;;;;;;;;5053550;28;20389;-73
2022/10/17 06:25:37;;;;;;;12.82;8.93;;;;;;;;;;5071796;28;20016;-72
2022/10/17 06:28:02;;;;;;;13.85;8.45;;;;;;;;;;5071768;28;20033;-72
2022/10/17 06:30:27;;;;;;;12.05;8.60;;;;;;;;;;5052631;28;20095;-72
2022/10/17 06:32:53;;;;;;;12.63;8.63;;;;;;;;;;5071554;28;20027;-72
2022/10/17 06:35:18;;;;;;;18.58;8.32;;;;;;;;;;5071810;28;20029;-72
2022/10/17 06:37:43;;;;;;;14.98;8.23;;;;;;;;;;5076947;28;20035;-72
2022/10/17 06:40:11;;;;;;;10.33;7.93;;;;;;;;;;5079176;28;20012;-72
2022/10/17 06:42:36;;;;;;;8.35;7.22;;;;;;;;;;5073480;28;20273;-72
2022/10/17 06:45:01;;;;;;;10.13;7.53;;;;;;;;;;5049249;28;20016;-72
2022/10/17 06:47:26;;;;;;;9.82;7.43;;;;;;;;;;5045828;28;20020;-72
2022/10/17 06:49:52;;;;;;;9.10;7.07;;;;;;;;;;5056763;28;20100;-72
2022/10/17 06:52:17;;;;;;;12.47;7.47;;;;;;;;;;5074636;28;20323;-72
2022/10/17 06:54:43;;;;;;;13.13;7.53;;;;;;;;;;5071062;28;20368;-72
2022/10/17 06:57:08;;;;;;;12.95;7.80;;;;;;;;;;5074748;28;20324;-72
2022/10/17 06:59:33;;;;;;;10.70;7.35;;;;;;;;;;5074120;28;20471;-72
2022/10/17 07:01:59;;;;;;;11.30;8.52;;;;;;;;;;5074700;28;20021;-72
2022/10/17 07:04:25;;;;;;;9.57;7.13;;;;;;;;;;5075091;28;20013;-72
2022/10/17 07:06:50;;;;;;;10.77;6.82;;;;;;;;;;5069772;28;20495;-72
2022/10/17 07:09:15;;;;;;;10.87;6.87;;;;;;;;;;5067998;28;20064;-72
2022/10/17 07:11:41;;;;;;;8.82;7.03;;;;;;;;;;5076153;28;20270;-72
2022/10/17 07:14:06;;;;;;;9.23;6.97;;;;;;;;;;5074506;28;20524;-72
2022/10/17 07:16:31;;;;;;;11.23;6.73;;;;;;;;;;5071417;28;21319;-72
2022/10/17 07:18:57;;;;;;;8.90;6.35;;;;;;;;;;5073901;28;20290;-72
2022/10/17 07:21:22;;;;;;;13.02;6.15;;;;;;;;;;5074188;28;20032;-72
2022/10/17 07:23:48;;;;;;;7.60;6.10;;;;;;;;;;5074034;28;20024;-72
2022/10/17 07:26:14;;;;;;;10.10;5.50;;;;;;;;;;5074548;28;20099;-72
2022/10/17 07:28:41;;;;;;;8.93;4.68;;;;;;;;;;5074179;28;20019;-73
2022/10/17 07:31:08;;;;;;;10.23;5.85;;;;;;;;;;5073442;28;20127;-72
2022/10/17 07:33:33;;;;;;;7.68;5.35;;;;;;;;;;5056008;28;20074;-70
2022/10/17 07:35:59;;;;;;;7.35;5.07;;;;;;;;;;5058373;28;20063;-70
2022/10/17 07:38:24;;;;;;;9.00;5.32;;;;;;;;;;5069314;28;20024;-71
2022/10/17 07:40:56;;;;;;;12.20;5.40;;;;;;;;;;5073644;28;20104;-71
2022/10/17 07:43:22;;;;;;;10.82;5.53;;;;;;;;;;5067740;28;20052;-71
2022/10/17 07:45:47;;;;;;;12.63;4.82;;;;;;;;;;5073532;28;20473;-72
2022/10/17 07:48:12;;;;;;;9.37;5.80;;;;;;;;;;5073962;28;20024;-73
2022/10/17 07:50:38;;;;;;;15.47;5.67;;;;;;;;;;5073792;28;20290;-72
2022/10/17 07:53:03;;;;;;;10.18;5.75;;;;;;;;;;5049948;28;20278;-73
2022/10/17 07:55:28;;;;;;;8.40;5.23;;;;;;;;;;5073826;28;20027;-72
2022/10/17 07:57:53;;;;;;;8.97;5.00;;;;;;;;;;5073521;28;20758;-72
2022/10/17 08:00:19;;;;;;;7.53;4.40;;;;;;;;;;5049559;28;20127;-73
2022/10/17 08:02:44;;;;;;;8.18;4.78;;;;;;;;;;5073969;28;20277;-72
2022/10/17 08:05:09;;;;;;;12.73;4.63;;;;;;;;;;5073377;28;20528;-72
2022/10/17 08:07:34;;;;;;;6.83;4.13;;;;;;;;;;5073743;28;20704;-72
2022/10/17 08:10:00;;;;;;;6.40;4.45;;;;;;;;;;5072889;28;20274;-72
2022/10/17 08:12:25;;;;;;;8.17;4.30;;;;;;;;;;5073648;28;20070;-72
2022/10/17 08:14:50;;;;;;;9.35;4.28;;;;;;;;;;5085449;28;20826;-72
2022/10/17 08:17:15;;;;;;;10.83;5.00;;;;;;;;;;5073526;28;20481;-71
2022/10/17 08:19:41;;;;;;;8.13;3.90;;;;;;;;;;5073790;28;20130;-71
2022/10/17 08:22:06;;;;;;;9.25;3.90;;;;;;;;;;5070678;28;20283;-70
2022/10/17 08:24:31;;;;;;;9.45;4.75;;;;;;;;;;5072083;28;20017;-72
2022/10/17 08:26:57;;;;;;;8.65;4.75;;;;;;;;;;5075033;28;20065;-66
2022/10/17 08:29:22;;;;;;;12.82;3.85;;;;;;;;;;5072938;28;20095;-71
2022/10/17 08:31:47;;;;;;;5.15;3.63;;;;;;;;;;5055118;28;20016;-71
2022/10/17 08:34:13;;;;;;;6.78;3.67;;;;;;;;;;5072860;28;20058;-71
2022/10/17 08:36:38;;;;;;;7.60;4.18;;;;;;;;;;5072256;28;20036;-72
2022/10/17 08:39:03;;;;;;;7.53;4.23;;;;;;;;;;5079465;28;20679;-65
2022/10/17 08:41:47;;;;;;;6.53;4.27;;;;;;;;;;5079801;28;20303;-71
2022/10/17 08:44:31;;;;;;;13.05;4.13;;;;;;;;;;5072380;28;20266;-72
2022/10/17 08:46:58;;;;;;;7.32;3.75;;;;;;;;;;5069730;28;20043;-72
2022/10/17 08:49:26;;;;;;;7.50;3.47;;;;;;;;;;5073270;28;20023;-71
2022/10/17 08:51:54;;;;;;;5.53;3.38;;;;;;;;;;5072776;28;20052;-72
2022/10/17 08:54:37;;;;;;;8.68;3.85;;;;;;;;;;5037239;28;20017;-71
2022/10/17 08:57:02;;;;;;;8.32;3.90;;;;;;;;;;5072755;28;20021;-72
2022/10/17 08:59:28;;;;;;;9.60;4.10;;;;;;;;;;5072833;28;20407;-71
2022/10/17 09:02:23;;;;;;;8.43;3.70;;;;;;;;;;5072926;28;20262;-72
2022/10/17 09:05:00;;;;;;;9.70;4.32;;;;;;;;;;5035152;28;20716;-72
2022/10/17 09:07:48;;;;;;;10.30;3.60;;;;;;;;;;5072327;28;20016;-71
2022/10/17 09:10:17;;;;;;;8.00;3.95;;;;;;;;;;5061070;28;20024;-72
2022/10/17 09:12:49;;;;;;;7.57;4.25;;;;;;;;;;5058574;28;20028;-71
2022/10/17 09:15:20;;;;;;;13.70;4.63;;;;;;;;;;5072212;28;20032;-71
2022/10/17 09:18:08;;;;;;;12.18;4.18;;;;;;;;;;5071956;28;20024;-72
2022/10/17 09:20:53;;;;;;;10.43;4.07;;;;;;;;;;5059886;28;20033;-71
2022/10/17 09:23:21;;;;;;;10.50;4.35;;;;;;;;;;5074082;28;20073;-72
2022/10/17 09:25:49;;;;;;;6.82;4.10;;;;;;;;;;5071713;28;20013;-72
2022/10/17 09:28:18;;;;;;;7.65;3.63;;;;;;;;;;5071577;28;20013;-72
2022/10/17 09:30:43;;;;;;;6.93;3.60;;;;;;;;;;5070223;28;20013;-72
2022/10/17 09:33:18;;;;;;;8.97;4.13;;;;;;;;;;5067737;28;20147;-73
2022/10/17 09:35:44;;;;;;;13.35;4.97;;;;;;;;;;5071124;28;20028;-72
2022/10/17 09:38:14;;;;;;;5.97;4.15;;;;;;;;;;5071821;28;20597;-71
2022/10/17 09:40:39;;;;;;;9.30;3.75;;;;;;;;;;5071428;28;20017;-70
2022/10/17 09:43:06;;;;;;;7.17;4.20;;;;;;;;;;5071798;28;20028;-72
2022/10/17 09:45:37;;;;;;;8.00;4.68;;;;;;;;;;5070124;28;20361;-72
2022/10/17 09:48:09;;;;;;;7.72;4.15;;;;;;;;;;5072174;28;20024;-72
2022/10/17 09:50:34;;;;;;;9.88;4.03;;;;;;;;;;5053801;28;20019;-72
2022/10/17 09:53:01;;;;;;;10.60;4.55;;;;;;;;;;5071800;28;20422;-70
2022/10/17 09:55:44;;;;;;;7.97;4.50;;;;;;;;;;5052231;28;20505;-71
2022/10/17 09:58:09;;;;;;;10.98;4.43;;;;;;;;;;5067281;28;20021;-70
2022/10/17 10:00:39;;;;;;;9.65;4.70;;;;;;;;;;5058897;28;20913;-72
2022/10/17 10:03:07;;;;;;;7.82;4.90;;;;;;;;;;5030326;28;20069;-72
2022/10/17 10:05:32;;;;;;;7.40;5.32;;;;;;;;;;5029346;28;20040;-70
2022/10/17 10:08:03;;;;;;;7.50;5.03;;;;;;;;;;5028625;28;20021;-71
2022/10/17 10:10:29;;;;;;;11.85;6.30;;;;;;;;;;5027686;28;20466;-71
2022/10/17 10:13:05;;;;;;;20.08;6.15;;;;;;;;;;5028848;28;20085;-72
2022/10/17 10:15:32;;;;;;;9.55;6.13;;;;;;;;;;5034839;28;20048;-72
2022/10/17 10:17:58;;;;;;;11.00;6.85;;;;;;;;;;5013252;28;20564;-72
2022/10/17 10:20:49;;;;;;;10.03;7.03;;;;;;;;;;5032446;28;20013;-72
2022/10/17 10:23:17;;;;;;;9.57;6.60;;;;;;;;;;4994455;28;20278;-71
2022/10/17 10:25:56;;;;;;;17.33;6.80;;;;;;;;;;5032203;28;20185;-71
2022/10/17 10:28:24;;;;;;;9.68;6.47;;;;;;;;;;5031390;28;20020;-71
2022/10/17 10:30:50;;;;;;;10.65;7.30;;;;;;;;;;5033373;28;20074;-71
2022/10/17 10:33:17;;;;;;;16.20;7.32;;;;;;;;;;5031639;28;20519;-72
2022/10/17 10:35:50;;;;;;;13.00;7.35;;;;;;;;;;5032198;28;20139;-72
2022/10/17 10:38:16;;;;;;;13.68;8.18;;;;;;;;;;5031903;28;20086;-72
2022/10/17 10:40:45;;;;;;;9.90;7.18;;;;;;;;;;5031651;28;20044;-71
2022/10/17 10:43:40;;;;;;;13.07;8.85;;;;;;;;;;5030990;28;20084;-72
2022/10/17 10:46:16;;;;;;;15.80;8.20;;;;;;;;;;5016789;28;20029;-72
2022/10/17 10:48:58;;;;;;;9.45;7.53;;;;;;;;;;5048123;28;20476;-72
2022/10/17 10:51:34;;;;;;;10.77;7.40;;;;;;;;;;5032718;28;20023;-72
2022/10/17 10:53:59;;;;;;;12.68;7.32;;;;;;;;;;5032631;28;20051;-72
2022/10/17 10:56:39;;;;;;;13.30;7.60;;;;;;;;;;5036629;28;20024;-72
2022/10/17 10:59:07;;;;;;;10.13;8.35;;;;;;;;;;5030546;28;20381;-72
2022/10/17 11:01:51;;;;;;;12.73;7.70;;;;;;;;;;5024446;28;20028;-72
2022/10/17 11:04:35;;;;;;;13.38;8.32;;;;;;;;;;5030015;28;20029;-72
2022/10/17 11:07:05;;;;;;;11.13;7.80;;;;;;;;;;5045245;28;20866;-72
2022/10/17 11:09:43;;;;;;;15.05;7.53;;;;;;;;;;5047647;28;20114;-72
2022/10/17 11:12:33;;;;;;;13.85;8.43;;;;;;;;;;5031329;28;20114;-72
2022/10/17 11:15:02;;;;;;;19.52;7.70;;;;;;;;;;5013498;28;20024;-72
2022/10/17 11:17:31;;;;;;;18.55;8.52;;;;;;;;;;5031301;28;20020;-71
2022/10/17 11:20:08;;;;;;;13.80;6.63;;;;;;;;;;5030513;28;20881;-72
2022/10/17 11:22:41;;;;;;;9.32;7.40;;;;;;;;;;5031022;28;20789;-71
2022/10/17 11:25:10;;;;;;;12.77;7.40;;;;;;;;;;5030315;28;20877;-72
2022/10/17 11:27:35;;;;;;;9.38;7.22;;;;;;;;;;5028069;28;20013;-71
2022/10/17 11:30:02;;;;;;;9.13;6.87;;;;;;;;;;5031802;28;20799;-70
2022/10/17 11:32:31;;;;;;;8.82;6.55;;;;;;;;;;5031382;28;20031;-71
2022/10/17 11:35:03;;;;;;;16.77;6.30;;;;;;;;;;5030207;28;20024;-71
2022/10/17 11:37:30;;;;;;;8.85;6.38;;;;;;;;;;5031674;28;20301;-70
2022/10/17 11:40:05;;;;;;;11.07;6.25;;;;;;;;;;5030812;28;20032;-70
2022/10/17 11:42:30;;;;;;;8.95;7.20;;;;;;;;;;5047439;28;20863;-71
2022/10/17 11:44:59;;;;;;;19.80;6.40;;;;;;;;;;5030686;28;20012;-70
2022/10/17 11:47:27;;;;;;;12.07;6.43;;;;;;;;;;5030907;28;20027;-70
2022/10/17 11:49:56;;;;;;;10.07;6.28;;;;;;;;;;5030109;28;20101;-71
2022/10/17 11:52:37;;;;;;;11.73;6.10;;;;;;;;;;5001264;28;21046;-70
2022/10/17 11:55:18;;;;;;;22.55;6.50;;;;;;;;;;5031211;28;20135;-72
2022/10/17 11:57:49;;;;;;;12.38;6.18;;;;;;;;;;5030034;28;20063;-72
2022/10/17 12:00:14;;;;;;;9.50;6.00;;;;;;;;;;5029265;28;20032;-72
2022/10/17 12:02:42;;;;;;;15.10;6.18;;;;;;;;;;5011912;28;20773;-72
2022/10/17 12:05:18;;;;;;;7.57;5.63;;;;;;;;;;5032485;28;20939;-72
2022/10/17 12:07:46;;;;;;;9.75;5.55;;;;;;;;;;5029571;28;20075;-72
2022/10/17 12:10:17;;;;;;;10.50;6.63;;;;;;;;;;5032778;28;20048;-72
2022/10/17 12:12:42;;;;;;;7.78;5.47;;;;;;;;;;5030725;28;20219;-72
2022/10/17 12:15:23;;;;;;;10.30;5.45;;;;;;;;;;5031417;28;20558;-72
2022/10/17 12:17:55;;;;;;;8.82;5.70;;;;;;;;;;5012534;28;20024;-71
2022/10/17 12:20:23;;;;;;;10.30;5.38;;;;;;;;;;5029681;28;20135;-72
2022/10/17 12:22:49;;;;;;;7.80;5.55;;;;;;;;;;5008939;28;20021;-72
2022/10/17 12:25:19;;;;;;;10.03;5.47;;;;;;;;;;5029498;28;20036;-71
2022/10/17 12:27:46;;;;;;;9.70;5.97;;;;;;;;;;5029687;28;20393;-72
2022/10/17 12:30:11;;;;;;;11.20;6.43;;;;;;;;;;5014094;28;20086;-72
2022/10/17 12:32:37;;;;;;;12.82;5.72;;;;;;;;;;5030048;28;20012;-72
2022/10/17 12:35:02;;;;;;;11.48;5.97;;;;;;;;;;5028947;28;20044;-70
2022/10/17 12:37:46;;;;;;;11.25;5.35;;;;;;;;;;5030306;28;20793;-69
2022/10/17 12:40:30;;;;;;;8.10;4.97;;;;;;;;;;5029930;28;20162;-71
2022/10/17 12:42:55;;;;;;;8.80;5.80;;;;;;;;;;5042622;28;20028;-71
2022/10/17 12:45:39;;;;;;;8.25;5.65;;;;;;;;;;5011749;28;20105;-71
2022/10/17 12:48:07;;;;;;;9.65;5.85;;;;;;;;;;5003700;28;20423;-70
2022/10/17 12:50:51;;;;;;;9.13;5.68;;;;;;;;;;5030528;28;20530;-71
2022/10/17 12:53:18;;;;;;;12.63;5.10;;;;;;;;;;5042637;28;20028;-71
2022/10/17 12:55:44;;;;;;;12.45;5.60;;;;;;;;;;5033568;28;20063;-71
2022/10/17 12:58:13;;;;;;;9.48;5.53;;;;;;;;;;5036438;28;20021;-71
2022/10/17 13:00:41;;;;;;;16.77;5.72;;;;;;;;;;5029179;28;20889;-71
2022/10/17 13:03:12;;;;;;;13.55;5.57;;;;;;;;;;5029905;28;20452;-69
2022/10/17 13:05:39;;;;;;;8.23;5.13;;;;;;;;;;5017740;28;20881;-70
2022/10/17 13:08:06;;;;;;;10.55;5.43;;;;;;;;;;5013569;28;20021;-70
2022/10/17 13:10:37;;;;;;;7.65;4.72;;;;;;;;;;5031148;28;20020;-70
2022/10/17 13:13:10;;;;;;;8.70;5.03;;;;;;;;;;5030233;28;20072;-71
2022/10/17 13:15:35;;;;;;;11.35;5.78;;;;;;;;;;5030637;28;20024;-70
2022/10/17 13:18:01;;;;;;;10.15;5.60;;;;;;;;;;5014502;28;20143;-71
2022/10/17 13:20:27;;;;;;;9.10;5.10;;;;;;;;;;5036919;28;20089;-70
2022/10/17 13:22:54;;;;;;;9.88;5.15;;;;;;;;;;5027644;28;20035;-72
2022/10/17 13:25:19;;;;;;;13.45;5.70;;;;;;;;;;5039455;28;20017;-72
2022/10/17 13:27:45;;;;;;;13.10;5.50;;;;;;;;;;5029058;28;20840;-72
2022/10/17 13:30:30;;;;;;;7.20;4.90;;;;;;;;;;5028959;28;20020;-71
2022/10/17 13:32:56;;;;;;;8.18;6.18;;;;;;;;;;5035011;28;20013;-71
2022/10/17 13:35:24;;;;;;;7.88;5.68;;;;;;;;;;5025113;28;20013;-72
2022/10/17 13:37:50;;;;;;;9.77;6.35;;;;;;;;;;5027829;28;20024;-71
2022/10/17 13:40:16;;;;;;;9.60;6.07;;;;;;;;;;5028296;28;20055;-70
2022/10/17 13:42:42;;;;;;;13.38;6.07;;;;;;;;;;5029644;28;20123;-71
2022/10/17 13:45:40;;;;;;;8.43;5.53;;;;;;;;;;5010452;28;20017;-71
2022/10/17 13:48:08;;;;;;;19.40;6.38;;;;;;;;;;5006329;28;20067;-70
2022/10/17 13:50:36;;;;;;;16.55;7.10;;;;;;;;;;5030040;28;20828;-71
2022/10/17 13:53:27;;;;;;;13.77;5.72;;;;;;;;;;5032456;28;20039;-72
2022/10/17 13:56:00;;;;;;;8.65;5.57;;;;;;;;;;5029750;28;20099;-71
2022/10/17 13:58:29;;;;;;;11.18;5.50;;;;;;;;;;5050836;28;20025;-68
2022/10/17 14:00:55;;;;;;;10.40;6.40;;;;;;;;;;5038942;28;20774;-70
2022/10/17 14:03:21;;;;;;;13.88;6.63;;;;;;;;;;5030988;28;20021;-70
2022/10/17 14:06:04;;;;;;;13.18;6.57;;;;;;;;;;5031905;28;20845;-69
2022/10/17 14:08:30;;;;;;;9.20;5.97;;;;;;;;;;5042922;28;21000;-70
2022/10/17 14:10:56;;;;;;;12.90;5.78;;;;;;;;;;5033283;28;20027;-69
2022/10/17 14:13:22;;;;;;;10.32;6.55;;;;;;;;;;5031672;28;20033;-72
2022/10/17 14:15:48;;;;;;;10.85;6.60;;;;;;;;;;5032468;28;20069;-70
2022/10/17 14:18:17;;;;;;;9.02;5.80;;;;;;;;;;5033555;28;20025;-70
2022/10/17 14:20:46;;;;;;;13.13;6.80;;;;;;;;;;5033940;28;20115;-70
2022/10/17 14:23:27;;;;;;;13.70;7.13;;;;;;;;;;5032256;28;20028;-72
2022/10/17 14:26:03;;;;;;;20.27;8.05;;;;;;;;;;5015381;28;20017;-71
2022/10/17 14:28:28;;;;;;;14.60;7.07;;;;;;;;;;5036841;28;20020;-71
2022/10/17 14:31:07;;;;;;;17.92;7.38;;;;;;;;;;5035057;28;20898;-71
2022/10/17 14:33:33;;;;;;;9.65;7.25;;;;;;;;;;5045520;28;20070;-69
2022/10/17 14:35:59;;;;;;;12.07;7.70;;;;;;;;;;5032153;28;20016;-70